Terminal Aerodrome Forecast
Issued by NWS

Home | Current Version | Previous Version | Text Only | Print | Product List | Glossary On
Versions: 1 2 3 4 5 6 7 8 9 10 11 12 13 14 15
000
FTUS43 KICT 291100
TAFCNU
TAF
KCNU 291127Z 2912/3012 16008KT P6SM VCTS BKN060CB
      TEMPO 2912/2916 5SM -TSRA SCT035 BKN050CB
     FM291600 20010KT P6SM VCTS BKN070CB
     FM300600 20007KT P6SM SCT100 SCT200=

USA.gov is the U.S. government's official web portal to all federal, state and local government web resources and services.